sensor_id;sensor_type;location;lat;lon;timestamp;noise_LAeq;noise_LA_min;noise_LA_max;noise_LA01;noise_LA95
73822;Laerm;62152;52.078;8.414;2023-05-18T19:34:07;40.45;35.94;59.56;;
73822;Laerm;62152;52.078;8.414;2023-05-18T19:38:08;40.92;36.45;58.89;;
73822;Laerm;62152;52.078;8.414;2023-05-18T19:42:09;41.45;35.94;66.25;;
73822;Laerm;62152;52.078;8.414;2023-05-18T19:46:10;41.21;36.45;65.98;;
73822;Laerm;62152;52.078;8.414;2023-05-18T19:54:13;40.02;36.45;50.66;;
73822;Laerm;62152;52.078;8.414;2023-05-18T19:58:14;40.20;36.45;52.19;;
73822;Laerm;62152;52.078;8.414;2023-05-18T20:02:14;49.32;36.20;69.07;;
73822;Laerm;62152;52.078;8.414;2023-05-18T20:06:17;41.92;37.32;72.82;;
73822;Laerm;62152;52.078;8.414;2023-05-18T20:10:18;40.70;37.12;50.91;;
73822;Laerm;62152;52.078;8.414;2023-05-18T20:14:19;40.62;37.12;62.37;;
73822;Laerm;62152;52.078;8.414;2023-05-18T20:18:20;39.92;36.91;54.17;;
73822;Laerm;62152;52.078;8.414;2023-05-18T20:22:22;41.74;36.69;73.48;;
73822;Laerm;62152;52.078;8.414;2023-05-18T20:26:23;39.79;35.66;45.63;;
73822;Laerm;62152;52.078;8.414;2023-05-18T20:30:24;40.35;35.31;44.07;;
73822;Laerm;62152;52.078;8.414;2023-05-18T20:34:25;48.29;35.36;83.15;;
73822;Laerm;62152;52.078;8.414;2023-05-18T20:38:27;38.94;35.36;45.33;;
73822;Laerm;62152;52.078;8.414;2023-05-18T20:42:30;37.99;35.04;40.33;;
73822;Laerm;62152;52.078;8.414;2023-05-18T20:46:31;38.03;34.69;41.61;;
73822;Laerm;62152;52.078;8.414;2023-05-18T20:50:32;38.06;35.04;44.19;;
73822;Laerm;62152;52.078;8.414;2023-05-18T20:54:34;37.96;35.04;40.43;;
73822;Laerm;62152;52.078;8.414;2023-05-18T21:02:36;38.19;34.69;43.63;;
73822;Laerm;62152;52.078;8.414;2023-05-18T21:06:37;38.47;36.91;42.35;;
73822;Laerm;62152;52.078;8.414;2023-05-18T21:10:39;38.39;36.45;40.98;;
73822;Laerm;62152;52.078;8.414;2023-05-18T21:14:40;38.46;36.45;41.82;;
73822;Laerm;62152;52.078;8.414;2023-05-18T21:18:41;38.42;36.45;41.46;;
73822;Laerm;62152;52.078;8.414;2023-05-18T21:22:42;38.08;35.04;40.79;;
73822;Laerm;62152;52.078;8.414;2023-05-18T21:30:44;38.06;35.04;41.30;;
73822;Laerm;62152;52.078;8.414;2023-05-18T21:34:45;38.03;34.69;59.32;;
73822;Laerm;62152;52.078;8.414;2023-05-18T21:38:46;38.01;34.69;40.53;;
73822;Laerm;62152;52.078;8.414;2023-05-18T21:42:48;37.97;34.69;41.06;;
73822;Laerm;62152;52.078;8.414;2023-05-18T21:46:49;38.05;34.69;43.49;;
73822;Laerm;62152;52.078;8.414;2023-05-18T21:50:50;37.95;35.04;40.43;;
73822;Laerm;62152;52.078;8.414;2023-05-18T21:54:51;37.96;34.69;40.53;;
73822;Laerm;62152;52.078;8.414;2023-05-18T21:58:54;38.00;35.04;43.09;;
73822;Laerm;62152;52.078;8.414;2023-05-18T22:02:56;38.06;35.04;42.16;;
73822;Laerm;62152;52.078;8.414;2023-05-18T22:06:57;38.39;36.69;41.94;;
73822;Laerm;62152;52.078;8.414;2023-05-18T22:15:00;38.43;36.69;40.03;;
73822;Laerm;62152;52.078;8.414;2023-05-18T22:19:00;38.42;36.69;40.62;;
73822;Laerm;62152;52.078;8.414;2023-05-18T22:23:01;38.33;35.66;40.71;;
73822;Laerm;62152;52.078;8.414;2023-05-18T22:27:02;37.90;34.69;40.33;;
73822;Laerm;62152;52.078;8.414;2023-05-18T22:31:05;37.90;34.69;40.33;;
73822;Laerm;62152;52.078;8.414;2023-05-18T22:35:08;37.91;35.01;40.53;;
73822;Laerm;62152;52.078;8.414;2023-05-18T22:39:08;37.91;35.01;40.53;;
73822;Laerm;62152;52.078;8.414;2023-05-18T22:43:09;38.11;34.69;43.14;;
73822;Laerm;62152;52.078;8.414;2023-05-18T22:47:12;37.91;34.69;40.03;;
73822;Laerm;62152;52.078;8.414;2023-05-18T22:51:13;37.90;34.69;40.43;;
73822;Laerm;62152;52.078;8.414;2023-05-18T22:59:14;37.92;35.04;40.23;;
73822;Laerm;62152;52.078;8.414;2023-05-18T23:03:16;37.92;35.04;48.73;;
73822;Laerm;62152;52.078;8.414;2023-05-18T23:07:17;38.41;35.66;42.03;;
73822;Laerm;62152;52.078;8.414;2023-05-18T23:11:18;38.40;36.69;41.30;;
73822;Laerm;62152;52.078;8.414;2023-05-18T23:15:19;38.41;36.45;40.13;;
73822;Laerm;62152;52.078;8.414;2023-05-18T23:19:21;38.42;36.45;39.92;;
73822;Laerm;62152;52.078;8.414;2023-05-18T23:23:22;38.10;35.04;40.33;;
73822;Laerm;62152;52.078;8.414;2023-05-18T23:27:22;37.91;34.69;40.33;;
73822;Laerm;62152;52.078;8.414;2023-05-18T23:31:23;38.00;34.69;41.89;;
73822;Laerm;62152;52.078;8.414;2023-05-18T23:35:27;37.93;34.69;40.13;;
73822;Laerm;62152;52.078;8.414;2023-05-18T23:39:29;37.94;35.04;40.43;;
73822;Laerm;62152;52.078;8.414;2023-05-18T23:43:30;37.91;34.69;40.33;;
73822;Laerm;62152;52.078;8.414;2023-05-18T23:47:32;37.91;34.69;41.53;;
73822;Laerm;62152;52.078;8.414;2023-05-18T23:51:35;37.93;35.04;40.23;;
73822;Laerm;62152;52.078;8.414;2023-05-18T23:55:40;37.93;35.04;40.13;;
73822;Laerm;62152;52.078;8.414;2023-05-18T23:59:43;37.94;34.31;43.63;;
